createdAt,value
2018-05-02T00:01:38.400Z,99.90
2018-05-02T00:04:05.973Z,99.90
2018-05-02T00:06:33.598Z,99.90
2018-05-02T00:09:01.857Z,99.90
2018-05-02T00:11:30.454Z,99.90
2018-05-02T00:13:58.762Z,99.90
2018-05-02T00:16:26.257Z,99.90
2018-05-02T00:18:53.774Z,99.90
2018-05-02T00:21:21.331Z,99.90
2018-05-02T00:23:48.851Z,99.90
2018-05-02T00:26:17.122Z,99.90
2018-05-02T00:28:44.641Z,99.90
2018-05-02T00:31:12.157Z,99.90
2018-05-02T00:33:39.722Z,99.90
2018-05-02T00:36:07.224Z,99.90
2018-05-02T00:38:34.727Z,99.90
2018-05-02T00:41:02.622Z,99.90
2018-05-02T00:43:30.152Z,99.90
2018-05-02T00:45:57.689Z,99.90
2018-05-02T00:48:25.177Z,99.90
2018-05-02T00:50:52.685Z,99.90
2018-05-02T00:53:20.231Z,99.90
2018-05-02T00:55:47.733Z,99.90
2018-05-02T00:58:15.996Z,99.90
2018-05-02T01:00:44.249Z,99.90
2018-05-02T01:03:11.874Z,99.90
2018-05-02T01:05:39.422Z,99.90
2018-05-02T01:08:06.924Z,99.90
2018-05-02T01:10:34.736Z,99.90
2018-05-02T01:13:02.248Z,99.90
2018-05-02T01:15:29.765Z,99.90
2018-05-02T01:17:57.245Z,99.90
2018-05-02T01:20:24.784Z,99.90
2018-05-02T01:22:52.298Z,99.90
2018-05-02T01:25:20.580Z,99.90
2018-05-02T01:27:48.877Z,99.90
2018-05-02T01:30:16.383Z,99.90
2018-05-02T01:32:43.920Z,99.90
2018-05-02T01:35:11.426Z,99.90
2018-05-02T01:37:39.844Z,99.90
2018-05-02T01:40:07.376Z,99.90
2018-05-02T01:42:35.617Z,99.90
2018-05-02T01:45:03.302Z,99.90
2018-05-02T01:47:31.576Z,99.90
2018-05-02T01:49:59.944Z,99.90
2018-05-02T01:52:28.287Z,99.90
2018-05-02T01:54:55.770Z,99.90
2018-05-02T01:57:24.050Z,99.90
2018-05-02T01:59:52.339Z,99.90
2018-05-02T02:02:20.615Z,99.90
2018-05-02T02:04:48.158Z,99.90
2018-05-02T02:07:15.649Z,99.90
2018-05-02T02:09:43.246Z,99.90
2018-05-02T02:12:10.841Z,99.90
2018-05-02T02:14:39.113Z,99.90
2018-05-02T02:17:06.625Z,99.90
2018-05-02T02:19:34.160Z,99.90
2018-05-02T02:22:01.687Z,99.90
2018-05-02T02:24:29.990Z,99.90
2018-05-02T02:26:57.500Z,99.90
2018-05-02T02:29:25.019Z,99.90
2018-05-02T02:31:52.548Z,99.90
2018-05-02T02:34:20.068Z,99.90
2018-05-02T02:36:47.646Z,99.90
2018-05-02T02:39:15.090Z,99.90
2018-05-02T02:41:43.101Z,99.90
2018-05-02T02:44:10.607Z,99.90
2018-05-02T02:46:38.118Z,99.90
2018-05-02T02:49:05.724Z,99.90
2018-05-02T02:51:33.228Z,99.90
2018-05-02T02:54:00.729Z,99.90
2018-05-02T02:56:28.350Z,99.90
2018-05-02T02:58:56.203Z,99.90
2018-05-02T03:01:24.535Z,99.90
2018-05-02T03:03:52.025Z,99.90
2018-05-02T03:06:20.412Z,99.90
2018-05-02T03:08:47.950Z,99.90
2018-05-02T03:11:15.856Z,99.90
2018-05-02T03:13:43.450Z,99.90
2018-05-02T03:16:10.950Z,99.90
2018-05-02T03:18:39.357Z,99.90
2018-05-02T03:21:06.906Z,99.90
2018-05-02T03:23:34.443Z,99.90
2018-05-02T03:26:02.712Z,99.90
2018-05-02T03:28:31.025Z,99.90
2018-05-02T03:30:58.557Z,99.90
2018-05-02T03:33:26.858Z,99.90
2018-05-02T03:35:54.409Z,99.90
2018-05-02T03:38:21.941Z,99.90
2018-05-02T03:40:50.321Z,99.90
2018-05-02T03:43:18.605Z,99.90
2018-05-02T03:45:46.115Z,99.90
2018-05-02T03:48:13.850Z,99.90
2018-05-02T03:50:41.377Z,99.90
2018-05-02T03:53:09.637Z,99.90
2018-05-02T03:55:37.933Z,99.90
2018-05-02T03:58:05.497Z,99.90
2018-05-02T04:00:44.942Z,99.90
2018-05-02T04:03:24.318Z,99.90
2018-05-02T04:06:04.502Z,99.90
2018-05-02T04:08:32.786Z,99.90
2018-05-02T04:11:01.094Z,99.90
2018-05-02T04:13:28.621Z,99.90
2018-05-02T04:15:56.905Z,99.90
2018-05-02T04:18:24.487Z,99.90
2018-05-02T04:20:52.045Z,99.90
2018-05-02T04:23:19.650Z,99.90
2018-05-02T04:25:47.140Z,99.90
2018-05-02T04:28:14.701Z,99.90
2018-05-02T04:30:42.205Z,99.90
2018-05-02T04:33:09.742Z,99.90
2018-05-02T04:35:37.262Z,99.90
2018-05-02T04:38:05.613Z,99.90
2018-05-02T04:40:33.123Z,99.90
2018-05-02T04:43:00.655Z,99.90
2018-05-02T04:45:28.924Z,99.90
2018-05-02T04:47:57.208Z,99.90
2018-05-02T04:50:24.707Z,99.90
2018-05-02T04:52:52.311Z,99.90
2018-05-02T04:55:20.691Z,99.90
2018-05-02T04:57:48.103Z,99.90
2018-05-02T05:00:15.705Z,99.90
2018-05-02T05:02:43.975Z,99.90
2018-05-02T05:05:12.237Z,99.90
2018-05-02T05:07:39.733Z,99.90
2018-05-02T05:10:07.270Z,99.90
2018-05-02T05:12:35.866Z,99.90
2018-05-02T05:15:03.430Z,99.90
2018-05-02T05:17:30.992Z,99.90
2018-05-02T05:19:58.577Z,99.90
2018-05-02T05:22:26.132Z,99.90
2018-05-02T05:24:53.721Z,99.90
2018-05-02T05:27:21.249Z,99.90
2018-05-02T05:29:48.740Z,99.90
2018-05-02T05:32:16.280Z,99.90
2018-05-02T05:34:43.810Z,99.90
2018-05-02T05:37:11.324Z,99.90
2018-05-02T05:39:38.864Z,99.90
2018-05-02T05:42:06.371Z,99.90
2018-05-02T05:44:34.015Z,99.90
2018-05-02T05:47:02.294Z,99.90
2018-05-02T05:49:30.583Z,99.90
2018-05-02T05:51:58.104Z,99.90
2018-05-02T05:54:25.865Z,99.90
2018-05-02T05:56:54.057Z,99.90
2018-05-02T05:59:22.309Z,99.90
2018-05-02T06:01:49.853Z,99.90
2018-05-02T06:04:17.405Z,99.90
2018-05-02T06:06:45.104Z,99.90
2018-05-02T06:09:13.397Z,99.90
2018-05-02T06:11:40.893Z,99.90
2018-05-02T06:14:08.537Z,99.90
2018-05-02T06:16:36.039Z,99.90
2018-05-02T06:19:03.578Z,99.90
2018-05-02T06:21:31.094Z,99.90
2018-05-02T06:23:59.354Z,99.90
2018-05-02T06:26:27.622Z,99.90
2018-05-02T06:28:55.932Z,99.90
2018-05-02T06:31:23.460Z,99.90
2018-05-02T06:33:51.744Z,99.90
2018-05-02T06:36:19.282Z,99.90
2018-05-02T06:38:46.831Z,99.90
2018-05-02T06:41:14.404Z,99.90
2018-05-02T06:43:43.300Z,99.90
2018-05-02T06:46:11.606Z,99.90
2018-05-02T06:48:39.134Z,99.90
2018-05-02T06:51:07.514Z,99.90
2018-05-02T06:53:35.811Z,99.90
2018-05-02T06:56:03.371Z,99.90
2018-05-02T06:58:30.904Z,99.90
2018-05-02T07:00:59.213Z,99.90
2018-05-02T07:03:26.754Z,99.90
2018-05-02T07:05:54.274Z,99.90
2018-05-02T07:08:21.795Z,99.90
2018-05-02T07:10:49.457Z,99.90
2018-05-02T07:13:16.963Z,99.90
2018-05-02T07:15:45.356Z,99.90
2018-05-02T07:18:13.734Z,99.90
2018-05-02T07:20:41.322Z,99.90
2018-05-02T07:23:08.805Z,99.90
2018-05-02T07:25:36.429Z,99.90
2018-05-02T07:28:04.246Z,99.90
2018-05-02T07:30:31.758Z,99.90
2018-05-02T07:32:59.357Z,99.90
2018-05-02T07:35:26.911Z,99.90
2018-05-02T07:37:54.440Z,99.90
2018-05-02T07:40:22.080Z,99.90
2018-05-02T07:42:49.639Z,99.90
2018-05-02T07:45:17.211Z,99.90
2018-05-02T07:47:44.723Z,99.90
2018-05-02T07:50:12.222Z,99.90
2018-05-02T07:52:39.849Z,99.90
2018-05-02T07:55:07.357Z,99.90
2018-05-02T07:57:34.925Z,99.90
2018-05-02T08:00:02.458Z,99.90
2018-05-02T08:02:29.990Z,99.90
2018-05-02T08:04:58.278Z,99.90
2018-05-02T08:07:25.791Z,99.90
2018-05-02T08:09:53.324Z,99.90
2018-05-02T08:12:20.835Z,99.90
2018-05-02T08:14:49.121Z,99.90
2018-05-02T08:17:16.653Z,99.90
2018-05-02T08:19:44.184Z,99.90
2018-05-02T08:24:45.697Z,98.60
2018-05-02T08:27:13.241Z,97.10
2018-05-02T08:29:41.517Z,94.10
2018-05-02T08:32:09.795Z,95.10
2018-05-02T08:34:37.366Z,95.10
2018-05-02T08:37:04.913Z,92.70
2018-05-02T08:39:33.209Z,95.40
2018-05-02T08:42:00.738Z,95.40
2018-05-02T08:44:29.017Z,93.70
2018-05-02T08:46:57.318Z,95.60
2018-05-02T08:49:24.874Z,95.50
2018-05-02T08:51:53.165Z,91.50
2018-05-02T08:54:20.697Z,91.50
2018-05-02T08:56:48.214Z,90.10
2018-05-02T08:59:15.760Z,90.10
2018-05-02T09:01:43.370Z,92.20
2018-05-02T09:04:11.653Z,90.50
2018-05-02T09:06:39.181Z,90.40
2018-05-02T09:09:06.660Z,91.20
2018-05-02T09:11:34.934Z,91.80
2018-05-02T09:14:02.465Z,91.80
2018-05-02T09:16:30.044Z,93.20
2018-05-02T09:18:58.313Z,93.30
2018-05-02T09:21:26.630Z,93.10
2018-05-02T09:23:54.190Z,93.10
2018-05-02T09:26:21.748Z,90.90
2018-05-02T09:28:49.303Z,86.30
2018-05-02T09:31:16.819Z,88.50
2018-05-02T09:33:45.090Z,82.60
2018-05-02T09:36:13.522Z,82.50
2018-05-02T09:38:41.011Z,83.10
2018-05-02T09:41:08.666Z,85.40
2018-05-02T09:43:36.145Z,84.30
2018-05-02T09:46:04.577Z,86.00
2018-05-02T09:48:33.302Z,85.30
2018-05-02T09:51:00.853Z,85.10
2018-05-02T09:53:28.701Z,79.90
2018-05-02T09:55:56.394Z,76.50
2018-05-02T09:58:23.998Z,75.30
2018-05-02T10:00:51.519Z,74.90
2018-05-02T10:03:19.800Z,77.90
2018-05-02T10:05:48.143Z,77.70
2018-05-02T10:08:15.718Z,77.70
2018-05-02T10:10:43.242Z,75.70
2018-05-02T10:13:10.756Z,69.70
2018-05-02T10:15:39.102Z,71.00
2018-05-02T10:18:06.913Z,71.00
2018-05-02T10:20:34.475Z,67.70
2018-05-02T10:23:02.000Z,64.20
2018-05-02T10:25:30.698Z,64.90
2018-05-02T10:27:58.981Z,64.20
2018-05-02T10:30:26.513Z,64.20
2018-05-02T10:32:54.037Z,66.30
2018-05-02T10:35:21.661Z,65.10
2018-05-02T10:37:49.194Z,66.90
2018-05-02T10:40:17.598Z,64.10
2018-05-02T10:42:46.174Z,65.10
2018-05-02T10:45:13.775Z,65.10
2018-05-02T10:47:41.286Z,61.90
2018-05-02T10:50:10.333Z,60.60
2018-05-02T10:52:37.853Z,60.70
2018-05-02T10:55:05.406Z,59.00
2018-05-02T10:57:32.972Z,62.90
2018-05-02T11:00:00.497Z,64.80
2018-05-02T11:02:29.099Z,68.00
2018-05-02T11:04:57.353Z,64.20
2018-05-02T11:07:26.263Z,64.00
2018-05-02T11:09:53.768Z,63.90
2018-05-02T11:12:21.310Z,63.10
2018-05-02T11:14:48.858Z,62.30
2018-05-02T11:17:16.377Z,64.60
2018-05-02T11:19:44.834Z,66.40
2018-05-02T11:22:13.260Z,66.20
2018-05-02T11:24:44.777Z,63.90
2018-05-02T11:27:12.280Z,63.80
2018-05-02T11:29:39.960Z,61.60
2018-05-02T11:32:07.780Z,66.10
2018-05-02T11:34:36.196Z,67.40
2018-05-02T11:37:03.677Z,67.30
2018-05-02T11:39:31.560Z,69.40
2018-05-02T11:41:59.892Z,67.70
2018-05-02T11:44:27.404Z,67.70
2018-05-02T11:46:56.117Z,61.50
2018-05-02T11:49:23.641Z,61.50
2018-05-02T11:51:51.170Z,64.50
2018-05-02T11:54:18.700Z,64.60
2018-05-02T11:56:46.740Z,62.40
2018-05-02T11:59:15.653Z,61.50
2018-05-02T12:01:43.607Z,61.40
2018-05-02T12:04:11.190Z,60.80
2018-05-02T12:06:38.720Z,64.30
2018-05-02T12:09:07.200Z,65.70
2018-05-02T12:11:37.482Z,66.20
2018-05-02T12:14:06.928Z,66.20
2018-05-02T12:16:35.383Z,65.40
2018-05-02T12:19:02.952Z,65.40
2018-05-02T12:21:31.233Z,66.30
2018-05-02T12:23:59.529Z,67.10
2018-05-02T12:26:27.288Z,66.90
2018-05-02T12:28:55.643Z,65.40
2018-05-02T12:31:23.951Z,65.90
2018-05-02T12:33:51.577Z,65.80
2018-05-02T12:36:20.774Z,66.40
2018-05-02T12:38:48.386Z,66.40
2018-05-02T12:41:17.346Z,65.80
2018-05-02T12:43:45.762Z,67.90
2018-05-02T12:46:13.375Z,65.80
2018-05-02T12:48:40.993Z,65.70
2018-05-02T12:51:08.998Z,66.60
2018-05-02T12:53:36.579Z,64.60
2018-05-02T12:56:05.091Z,64.00
2018-05-02T12:58:33.373Z,65.10
2018-05-02T13:01:00.997Z,64.90
2018-05-02T13:03:28.894Z,64.90
2018-05-02T13:05:56.640Z,63.20
2018-05-02T13:08:24.245Z,64.80
2018-05-02T13:10:51.773Z,64.80
2018-05-02T13:13:19.411Z,64.80
2018-05-02T13:15:46.969Z,65.00
2018-05-02T13:18:16.464Z,66.50
2018-05-02T13:20:44.937Z,65.70
2018-05-02T13:23:13.334Z,64.80
2018-05-02T13:25:40.893Z,64.70
2018-05-02T13:28:08.759Z,66.90
2018-05-02T13:30:36.322Z,66.70
2018-05-02T13:33:03.880Z,65.70
2018-05-02T13:35:31.926Z,66.40
2018-05-02T13:37:59.423Z,67.90
2018-05-02T13:40:27.424Z,70.70
2018-05-02T13:43:08.146Z,68.10
2018-05-02T13:45:36.054Z,68.00
2018-05-02T13:48:03.523Z,69.70
2018-05-02T13:50:31.793Z,69.70
2018-05-02T13:53:00.097Z,69.90
2018-05-02T13:55:27.649Z,69.80
2018-05-02T13:57:55.932Z,71.60
2018-05-02T14:00:23.462Z,71.60
2018-05-02T14:02:51.763Z,67.60
2018-05-02T14:05:19.277Z,67.50
2018-05-02T14:07:46.839Z,62.90
2018-05-02T14:10:15.770Z,62.50
2018-05-02T14:12:43.314Z,61.90
2018-05-02T14:15:10.856Z,64.00
2018-05-02T14:17:38.367Z,63.70
2018-05-02T14:20:05.918Z,64.20
2018-05-02T14:22:33.448Z,64.20
2018-05-02T14:25:00.990Z,62.40
2018-05-02T14:27:29.298Z,60.90
2018-05-02T14:29:56.828Z,60.80
2018-05-02T14:32:24.435Z,60.70
2018-05-02T14:34:52.055Z,61.20
2018-05-02T14:37:20.336Z,63.20
2018-05-02T14:39:47.838Z,63.20
2018-05-02T14:42:15.381Z,62.00
2018-05-02T14:44:42.862Z,63.50
2018-05-02T14:47:10.738Z,64.60
2018-05-02T14:49:38.276Z,62.40
2018-05-02T14:52:05.812Z,64.90
2018-05-02T14:54:33.402Z,61.30
2018-05-02T14:57:01.632Z,62.40
2018-05-02T14:59:29.260Z,62.00
2018-05-02T15:01:56.793Z,62.10
2018-05-02T15:04:24.299Z,62.10
2018-05-02T15:06:52.621Z,59.90
2018-05-02T15:09:20.139Z,59.90
2018-05-02T15:11:47.677Z,61.70
2018-05-02T15:14:15.156Z,63.30
2018-05-02T15:16:42.670Z,60.90
2018-05-02T15:19:10.177Z,63.50
2018-05-02T15:21:37.775Z,61.60
2018-05-02T15:24:05.296Z,60.30
2018-05-02T15:26:32.844Z,61.20
2018-05-02T15:29:00.397Z,62.80
2018-05-02T15:31:27.998Z,62.00
2018-05-02T15:33:55.603Z,63.10
2018-05-02T15:36:23.121Z,59.90
2018-05-02T15:38:50.740Z,59.60
2018-05-02T15:41:18.243Z,59.50
2018-05-02T15:43:45.889Z,59.40
2018-05-02T15:46:13.406Z,59.30
2018-05-02T15:48:41.988Z,59.40
2018-05-02T15:51:09.552Z,59.30
2018-05-02T15:53:37.123Z,58.80
2018-05-02T15:56:04.710Z,58.80
2018-05-02T15:58:32.340Z,59.00
2018-05-02T16:01:00.881Z,60.40
2018-05-02T16:03:28.473Z,59.80
2018-05-02T16:05:55.991Z,60.00
2018-05-02T16:08:23.523Z,59.70
2018-05-02T16:10:51.041Z,59.50
2018-05-02T16:13:18.619Z,60.10
2018-05-02T16:15:46.136Z,62.10
2018-05-02T16:18:14.480Z,60.40
2018-05-02T16:20:41.986Z,60.40
2018-05-02T16:23:10.285Z,60.90
2018-05-02T16:25:37.828Z,60.90
2018-05-02T16:28:05.375Z,60.80
2018-05-02T16:30:33.669Z,61.70
2018-05-02T16:33:01.234Z,61.60
2018-05-02T16:35:28.796Z,62.30
2018-05-02T16:37:56.415Z,61.00
2018-05-02T16:40:23.948Z,62.50
2018-05-02T16:42:51.861Z,65.60
2018-05-02T16:45:19.402Z,63.70
2018-05-02T16:47:47.667Z,61.60
2018-05-02T16:50:16.619Z,62.90
2018-05-02T16:52:44.524Z,62.90
2018-05-02T16:55:12.044Z,62.80
2018-05-02T16:57:39.618Z,62.60
2018-05-02T17:00:07.254Z,64.20
2018-05-02T17:02:34.825Z,64.10
2018-05-02T17:05:02.483Z,64.60
2018-05-02T17:07:30.070Z,64.70
2018-05-02T17:09:57.599Z,67.00
2018-05-02T17:12:25.147Z,66.30
2018-05-02T17:14:52.673Z,67.00
2018-05-02T17:17:20.297Z,66.50
2018-05-02T17:19:48.710Z,66.70
2018-05-02T17:22:17.122Z,66.90
2018-05-02T17:24:44.551Z,66.90
2018-05-02T17:27:12.101Z,67.20
2018-05-02T17:29:40.396Z,68.10
2018-05-02T17:32:07.952Z,68.10
2018-05-02T17:34:35.606Z,68.60
2018-05-02T17:37:03.141Z,70.40
2018-05-02T17:39:32.140Z,70.80
2018-05-02T17:42:00.594Z,71.20
2018-05-02T17:44:28.260Z,71.00
2018-05-02T17:46:55.846Z,72.00
2018-05-02T17:49:24.142Z,72.60
2018-05-02T17:51:51.730Z,72.60
2018-05-02T17:54:19.226Z,72.80
2018-05-02T17:56:47.460Z,73.20
2018-05-02T17:59:14.975Z,73.30
2018-05-02T18:01:43.440Z,73.70
2018-05-02T18:04:11.767Z,74.60
2018-05-02T18:06:39.855Z,74.60
2018-05-02T18:09:07.390Z,74.30
2018-05-02T18:11:34.927Z,75.60
2018-05-02T18:14:02.460Z,75.30
2018-05-02T18:16:31.454Z,75.60
2018-05-02T18:18:59.867Z,76.80
2018-05-02T18:21:27.411Z,76.60
2018-05-02T18:23:54.985Z,76.60
2018-05-02T18:26:22.540Z,77.60
2018-05-02T18:28:50.122Z,77.30
2018-05-02T18:31:17.659Z,78.20
2018-05-02T18:33:45.252Z,78.90
2018-05-02T18:36:12.780Z,79.40
2018-05-02T18:38:40.478Z,78.90
2018-05-02T18:41:08.098Z,79.50
2018-05-02T18:43:35.707Z,80.50
2018-05-02T18:46:04.071Z,81.50
2018-05-02T18:48:31.596Z,81.80
2018-05-02T18:50:59.331Z,82.60
2018-05-02T18:53:27.634Z,83.80
2018-05-02T18:55:55.218Z,83.80
2018-05-02T18:58:22.793Z,84.50
2018-05-02T19:00:51.245Z,85.10
2018-05-02T19:03:18.787Z,85.60
2018-05-02T19:05:46.344Z,87.10
2018-05-02T19:08:13.853Z,86.80
2018-05-02T19:10:42.140Z,89.20
2018-05-02T19:13:10.396Z,89.40
2018-05-02T19:15:38.017Z,89.10
2018-05-02T19:18:11.277Z,89.70
2018-05-02T19:20:39.624Z,90.10
2018-05-02T19:23:07.170Z,90.10
2018-05-02T19:25:40.367Z,90.20
2018-05-02T19:28:07.941Z,90.50
2018-05-02T19:30:35.486Z,90.70
2018-05-02T19:33:08.658Z,90.90
2018-05-02T19:35:36.431Z,91.40
2018-05-02T19:38:04.141Z,91.60
2018-05-02T19:40:38.441Z,92.10
2018-05-02T19:43:12.600Z,92.70
2018-05-02T19:45:40.151Z,92.40
2018-05-02T19:48:07.691Z,92.90
2018-05-02T19:50:35.675Z,93.20
2018-05-02T19:53:03.199Z,93.40
2018-05-02T19:55:32.095Z,93.80
2018-05-02T19:58:00.439Z,94.20
2018-05-02T20:00:33.748Z,94.10
2018-05-02T20:03:01.301Z,94.20
2018-05-02T20:05:28.818Z,94.10
2018-05-02T20:07:56.393Z,94.70
2018-05-02T20:10:29.591Z,94.60
2018-05-02T20:13:02.927Z,94.90
2018-05-02T20:15:30.686Z,94.90
2018-05-02T20:17:58.926Z,95.20
2018-05-02T20:20:26.488Z,95.20
2018-05-02T20:22:54.926Z,95.10
2018-05-02T20:25:22.758Z,95.20
2018-05-02T20:27:50.222Z,95.30
2018-05-02T20:30:18.592Z,95.70
2018-05-02T20:32:46.913Z,95.90
2018-05-02T20:35:14.488Z,95.90
2018-05-02T20:37:42.043Z,96.10
2018-05-02T20:40:09.550Z,96.40
2018-05-02T20:42:37.117Z,96.60
2018-05-02T20:45:04.665Z,96.70
2018-05-02T20:47:33.019Z,96.90
2018-05-02T20:50:00.536Z,96.90
2018-05-02T20:52:28.081Z,97.30
2018-05-02T20:54:55.712Z,97.30
2018-05-02T20:57:23.924Z,97.50
2018-05-02T20:59:51.451Z,97.50
2018-05-02T21:02:19.043Z,97.50
2018-05-02T21:04:46.696Z,97.70
2018-05-02T21:07:14.226Z,97.70
2018-05-02T21:09:42.532Z,98.30
2018-05-02T21:12:10.079Z,98.20
2018-05-02T21:14:38.203Z,98.40
2018-05-02T21:17:05.768Z,98.40
2018-05-02T21:19:33.376Z,99.00
2018-05-02T21:22:00.883Z,99.00
2018-05-02T21:24:28.399Z,99.20
2018-05-02T21:26:55.906Z,99.70
2018-05-02T21:29:23.502Z,99.60
2018-05-02T21:31:51.031Z,99.90
2018-05-02T21:34:18.578Z,99.90
2018-05-02T21:36:46.127Z,99.90
2018-05-02T21:39:13.743Z,99.90
2018-05-02T21:41:41.475Z,99.90
2018-05-02T21:44:09.006Z,99.90
2018-05-02T21:46:37.417Z,99.90
2018-05-02T21:49:04.955Z,99.90
2018-05-02T21:51:33.271Z,99.90
2018-05-02T21:54:00.832Z,99.90
2018-05-02T21:56:29.185Z,99.90
2018-05-02T21:58:57.537Z,99.90
2018-05-02T22:01:25.025Z,99.90
2018-05-02T22:03:53.337Z,99.90
2018-05-02T22:06:20.874Z,99.90
2018-05-02T22:08:48.405Z,99.90
2018-05-02T22:11:16.707Z,99.90
2018-05-02T22:13:44.198Z,99.90
2018-05-02T22:16:11.780Z,99.90
2018-05-02T22:18:40.052Z,99.90
2018-05-02T22:21:07.687Z,99.90
2018-05-02T22:23:35.225Z,99.90
2018-05-02T22:26:02.733Z,99.90
2018-05-02T22:28:31.140Z,99.90
2018-05-02T22:30:58.689Z,99.90
2018-05-02T22:33:26.275Z,99.90
2018-05-02T22:35:53.829Z,99.90
2018-05-02T22:38:21.321Z,99.90
2018-05-02T22:40:48.902Z,99.90
2018-05-02T22:43:16.421Z,99.90
2018-05-02T22:45:43.911Z,99.90
2018-05-02T22:48:11.469Z,99.90
2018-05-02T22:50:39.753Z,99.90
2018-05-02T22:53:08.087Z,99.90
2018-05-02T22:55:35.588Z,99.90
2018-05-02T22:58:04.074Z,99.90
2018-05-02T23:00:32.383Z,99.90
2018-05-02T23:02:59.900Z,99.90
2018-05-02T23:05:28.258Z,99.90
2018-05-02T23:07:55.772Z,99.90
2018-05-02T23:10:23.301Z,99.90
2018-05-02T23:12:51.581Z,99.90
2018-05-02T23:15:19.114Z,99.90
2018-05-02T23:17:46.687Z,99.90
2018-05-02T23:20:15.002Z,99.90
2018-05-02T23:22:42.505Z,99.90
2018-05-02T23:25:10.032Z,99.90
2018-05-02T23:27:37.562Z,99.90
2018-05-02T23:30:05.084Z,99.90
2018-05-02T23:32:32.680Z,99.90
2018-05-02T23:35:00.198Z,99.90
2018-05-02T23:37:27.981Z,99.90
2018-05-02T23:39:56.389Z,99.90
2018-05-02T23:42:23.944Z,99.90
2018-05-02T23:44:51.468Z,99.90
2018-05-02T23:47:19.719Z,99.90
2018-05-02T23:49:47.269Z,99.90
2018-05-02T23:52:14.817Z,99.90
2018-05-02T23:54:42.388Z,99.90
2018-05-02T23:57:09.912Z,99.90
2018-05-02T23:59:37.426Z,99.90
